sensor_id;sensor_type;location;lat;lon;timestamp;temperature;humidity
64226;DHT22;50545;56.064;26.178;2022-11-20T00:01:22;-4.90;99.90
64226;DHT22;50545;56.064;26.178;2022-11-20T00:03:51;-4.90;99.90
64226;DHT22;50545;56.064;26.178;2022-11-20T00:06:20;-4.90;99.90
64226;DHT22;50545;56.064;26.178;2022-11-20T00:08:48;-4.90;99.90
64226;DHT22;50545;56.064;26.178;2022-11-20T00:11:18;-4.90;99.90
64226;DHT22;50545;56.064;26.178;2022-11-20T00:13:46;-4.90;99.90
64226;DHT22;50545;56.064;26.178;2022-11-20T00:16:16;-4.90;99.90
64226;DHT22;50545;56.064;26.178;2022-11-20T00:18:44;-4.90;99.90
64226;DHT22;50545;56.064;26.178;2022-11-20T00:21:14;-4.90;99.90
64226;DHT22;50545;56.064;26.178;2022-11-20T00:23:42;-5.00;99.90
64226;DHT22;50545;56.064;26.178;2022-11-20T00:26:12;-5.00;99.90
64226;DHT22;50545;56.064;26.178;2022-11-20T00:28:40;-5.00;99.90
64226;DHT22;50545;56.064;26.178;2022-11-20T00:31:13;-5.00;99.90
64226;DHT22;50545;56.064;26.178;2022-11-20T00:33:41;-5.00;99.90
64226;DHT22;50545;56.064;26.178;2022-11-20T00:36:14;-5.00;99.90
64226;DHT22;50545;56.064;26.178;2022-11-20T00:38:42;-5.00;99.90
64226;DHT22;50545;56.064;26.178;2022-11-20T00:41:14;-5.00;99.90
64226;DHT22;50545;56.064;26.178;2022-11-20T00:43:41;-5.00;99.90
64226;DHT22;50545;56.064;26.178;2022-11-20T00:46:13;-5.10;99.90
64226;DHT22;50545;56.064;26.178;2022-11-20T00:48:41;-5.10;99.90
64226;DHT22;50545;56.064;26.178;2022-11-20T00:51:08;-5.10;99.90
64226;DHT22;50545;56.064;26.178;2022-11-20T00:53:36;-5.20;99.90
64226;DHT22;50545;56.064;26.178;2022-11-20T00:56:06;-5.20;99.90
64226;DHT22;50545;56.064;26.178;2022-11-20T00:58:35;-5.30;99.90
64226;DHT22;50545;56.064;26.178;2022-11-20T01:01:09;-5.30;99.90
64226;DHT22;50545;56.064;26.178;2022-11-20T01:03:46;-5.30;99.90
64226;DHT22;50545;56.064;26.178;2022-11-20T01:06:27;-5.30;99.90
64226;DHT22;50545;56.064;26.178;2022-11-20T01:08:57;-5.40;99.90
64226;DHT22;50545;56.064;26.178;2022-11-20T01:11:33;-5.40;99.90
64226;DHT22;50545;56.064;26.178;2022-11-20T01:14:02;-5.40;99.90
64226;DHT22;50545;56.064;26.178;2022-11-20T01:16:33;-5.50;99.90
64226;DHT22;50545;56.064;26.178;2022-11-20T01:19:01;-5.60;99.90
64226;DHT22;50545;56.064;26.178;2022-11-20T01:21:31;-5.60;99.90
64226;DHT22;50545;56.064;26.178;2022-11-20T01:23:59;-5.70;99.90
64226;DHT22;50545;56.064;26.178;2022-11-20T01:26:29;-5.70;99.90
64226;DHT22;50545;56.064;26.178;2022-11-20T01:28:57;-5.80;99.90
64226;DHT22;50545;56.064;26.178;2022-11-20T01:31:26;-5.90;99.90
64226;DHT22;50545;56.064;26.178;2022-11-20T01:33:56;-5.90;99.90
64226;DHT22;50545;56.064;26.178;2022-11-20T01:36:25;-5.90;99.90
64226;DHT22;50545;56.064;26.178;2022-11-20T01:38:55;-6.00;99.90
64226;DHT22;50545;56.064;26.178;2022-11-20T01:41:24;-6.00;99.90
64226;DHT22;50545;56.064;26.178;2022-11-20T01:44:13;-6.10;99.90
64226;DHT22;50545;56.064;26.178;2022-11-20T01:47:08;-6.10;99.90
64226;DHT22;50545;56.064;26.178;2022-11-20T01:49:45;-6.20;99.90
64226;DHT22;50545;56.064;26.178;2022-11-20T01:52:20;-6.30;99.90
64226;DHT22;50545;56.064;26.178;2022-11-20T01:55:13;-6.40;99.90
64226;DHT22;50545;56.064;26.178;2022-11-20T01:57:42;-6.50;99.90
64226;DHT22;50545;56.064;26.178;2022-11-20T02:00:14;-6.60;99.90
64226;DHT22;50545;56.064;26.178;2022-11-20T02:02:46;-6.70;99.90
64226;DHT22;50545;56.064;26.178;2022-11-20T02:05:51;-6.70;99.90
64226;DHT22;50545;56.064;26.178;2022-11-20T02:08:21;-6.80;99.90
64226;DHT22;50545;56.064;26.178;2022-11-20T02:10:48;-6.80;99.90
64226;DHT22;50545;56.064;26.178;2022-11-20T02:13:15;-6.80;99.90
64226;DHT22;50545;56.064;26.178;2022-11-20T02:16:02;-6.80;99.90
64226;DHT22;50545;56.064;26.178;2022-11-20T02:18:30;-6.70;99.90
64226;DHT22;50545;56.064;26.178;2022-11-20T02:21:48;-6.70;99.90
64226;DHT22;50545;56.064;26.178;2022-11-20T02:24:15;-6.60;99.90
64226;DHT22;50545;56.064;26.178;2022-11-20T02:26:55;-6.70;99.90
64226;DHT22;50545;56.064;26.178;2022-11-20T02:29:28;-6.60;99.90
64226;DHT22;50545;56.064;26.178;2022-11-20T02:31:59;-6.60;99.90
64226;DHT22;50545;56.064;26.178;2022-11-20T02:34:28;-6.50;99.90
64226;DHT22;50545;56.064;26.178;2022-11-20T02:36:56;-6.30;99.90
64226;DHT22;50545;56.064;26.178;2022-11-20T02:39:26;-6.20;99.90
64226;DHT22;50545;56.064;26.178;2022-11-20T02:41:56;-6.10;99.90
64226;DHT22;50545;56.064;26.178;2022-11-20T02:44:24;-6.10;99.90
64226;DHT22;50545;56.064;26.178;2022-11-20T02:46:51;-6.00;99.90
64226;DHT22;50545;56.064;26.178;2022-11-20T02:49:18;-5.90;99.90
64226;DHT22;50545;56.064;26.178;2022-11-20T02:51:46;-5.90;99.90
64226;DHT22;50545;56.064;26.178;2022-11-20T02:54:13;-5.80;99.90
64226;DHT22;50545;56.064;26.178;2022-11-20T02:56:40;-5.70;99.90
64226;DHT22;50545;56.064;26.178;2022-11-20T02:59:08;-5.70;99.90
64226;DHT22;50545;56.064;26.178;2022-11-20T03:01:35;-5.60;99.90
64226;DHT22;50545;56.064;26.178;2022-11-20T03:04:03;-5.60;99.90
64226;DHT22;50545;56.064;26.178;2022-11-20T03:06:30;-5.50;99.90
64226;DHT22;50545;56.064;26.178;2022-11-20T03:08:57;-5.50;99.90
64226;DHT22;50545;56.064;26.178;2022-11-20T03:11:24;-5.50;99.90
64226;DHT22;50545;56.064;26.178;2022-11-20T03:13:52;-5.40;99.90
64226;DHT22;50545;56.064;26.178;2022-11-20T03:16:21;-5.40;99.90
64226;DHT22;50545;56.064;26.178;2022-11-20T03:18:49;-5.40;99.90
64226;DHT22;50545;56.064;26.178;2022-11-20T03:21:18;-5.30;99.90
64226;DHT22;50545;56.064;26.178;2022-11-20T03:23:46;-5.30;99.90
64226;DHT22;50545;56.064;26.178;2022-11-20T03:26:18;-5.30;99.90
64226;DHT22;50545;56.064;26.178;2022-11-20T03:28:48;-5.20;99.90
64226;DHT22;50545;56.064;26.178;2022-11-20T03:31:17;-5.20;99.90
64226;DHT22;50545;56.064;26.178;2022-11-20T03:33:45;-5.20;99.90
64226;DHT22;50545;56.064;26.178;2022-11-20T03:36:14;-5.20;99.90
64226;DHT22;50545;56.064;26.178;2022-11-20T03:38:41;-5.10;99.90
64226;DHT22;50545;56.064;26.178;2022-11-20T03:41:11;-5.10;99.90
64226;DHT22;50545;56.064;26.178;2022-11-20T03:43:39;-5.10;99.90
64226;DHT22;50545;56.064;26.178;2022-11-20T03:46:07;-5.10;99.90
64226;DHT22;50545;56.064;26.178;2022-11-20T03:48:34;-5.10;99.90
64226;DHT22;50545;56.064;26.178;2022-11-20T03:51:18;-5.10;99.90
64226;DHT22;50545;56.064;26.178;2022-11-20T03:53:46;-5.10;99.90
64226;DHT22;50545;56.064;26.178;2022-11-20T03:56:16;-5.00;99.90
64226;DHT22;50545;56.064;26.178;2022-11-20T03:58:43;-5.00;99.90
64226;DHT22;50545;56.064;26.178;2022-11-20T04:01:16;-5.00;99.90
64226;DHT22;50545;56.064;26.178;2022-11-20T04:03:44;-5.00;99.90
64226;DHT22;50545;56.064;26.178;2022-11-20T04:06:17;-4.90;99.90
64226;DHT22;50545;56.064;26.178;2022-11-20T04:08:45;-4.90;99.90
64226;DHT22;50545;56.064;26.178;2022-11-20T04:11:24;-4.90;99.90
64226;DHT22;50545;56.064;26.178;2022-11-20T04:13:54;-4.90;99.90
64226;DHT22;50545;56.064;26.178;2022-11-20T04:16:23;-4.90;99.90
64226;DHT22;50545;56.064;26.178;2022-11-20T04:18:56;-4.80;99.90
64226;DHT22;50545;56.064;26.178;2022-11-20T04:21:24;-4.80;99.90
64226;DHT22;50545;56.064;26.178;2022-11-20T04:23:52;-4.80;99.90
64226;DHT22;50545;56.064;26.178;2022-11-20T04:26:20;-4.80;99.90
64226;DHT22;50545;56.064;26.178;2022-11-20T04:28:48;-4.80;99.90
64226;DHT22;50545;56.064;26.178;2022-11-20T04:31:18;-4.80;99.90
64226;DHT22;50545;56.064;26.178;2022-11-20T04:33:46;-4.80;99.90
64226;DHT22;50545;56.064;26.178;2022-11-20T04:36:16;-4.80;99.90
64226;DHT22;50545;56.064;26.178;2022-11-20T04:38:44;-4.80;99.90
64226;DHT22;50545;56.064;26.178;2022-11-20T04:41:21;-4.80;99.90
64226;DHT22;50545;56.064;26.178;2022-11-20T04:43:50;-4.80;99.90
64226;DHT22;50545;56.064;26.178;2022-11-20T04:46:19;-4.80;99.90
64226;DHT22;50545;56.064;26.178;2022-11-20T04:48:47;-4.80;99.90
64226;DHT22;50545;56.064;26.178;2022-11-20T04:51:15;-4.80;99.90
64226;DHT22;50545;56.064;26.178;2022-11-20T04:53:42;-4.80;99.90
64226;DHT22;50545;56.064;26.178;2022-11-20T04:56:11;-4.80;99.90
64226;DHT22;50545;56.064;26.178;2022-11-20T04:58:39;-4.90;99.90
64226;DHT22;50545;56.064;26.178;2022-11-20T05:01:10;-4.90;99.90
64226;DHT22;50545;56.064;26.178;2022-11-20T05:03:40;-4.90;99.90
64226;DHT22;50545;56.064;26.178;2022-11-20T05:06:10;-4.90;99.90
64226;DHT22;50545;56.064;26.178;2022-11-20T05:08:38;-4.90;99.90
64226;DHT22;50545;56.064;26.178;2022-11-20T05:11:09;-4.90;99.90
64226;DHT22;50545;56.064;26.178;2022-11-20T05:13:37;-4.90;99.90
64226;DHT22;50545;56.064;26.178;2022-11-20T05:16:07;-4.90;99.90
64226;DHT22;50545;56.064;26.178;2022-11-20T05:18:36;-4.90;99.90
64226;DHT22;50545;56.064;26.178;2022-11-20T05:21:04;-4.90;99.90
64226;DHT22;50545;56.064;26.178;2022-11-20T05:23:31;-4.90;99.90
64226;DHT22;50545;56.064;26.178;2022-11-20T05:26:00;-4.90;99.90
64226;DHT22;50545;56.064;26.178;2022-11-20T05:28:29;-4.90;99.90
64226;DHT22;50545;56.064;26.178;2022-11-20T05:31:04;-4.80;99.90
64226;DHT22;50545;56.064;26.178;2022-11-20T05:33:32;-4.80;99.90
64226;DHT22;50545;56.064;26.178;2022-11-20T05:36:00;-4.80;99.90
64226;DHT22;50545;56.064;26.178;2022-11-20T05:38:27;-4.80;99.90
64226;DHT22;50545;56.064;26.178;2022-11-20T05:40:54;-4.80;99.90
64226;DHT22;50545;56.064;26.178;2022-11-20T05:43:21;-4.80;99.90
64226;DHT22;50545;56.064;26.178;2022-11-20T05:45:55;-4.80;99.90
64226;DHT22;50545;56.064;26.178;2022-11-20T05:48:22;-4.80;99.90
64226;DHT22;50545;56.064;26.178;2022-11-20T05:50:49;-4.80;99.90
64226;DHT22;50545;56.064;26.178;2022-11-20T05:53:16;-4.80;99.90
64226;DHT22;50545;56.064;26.178;2022-11-20T05:55:43;-4.80;99.90
64226;DHT22;50545;56.064;26.178;2022-11-20T05:58:11;-4.80;99.90
64226;DHT22;50545;56.064;26.178;2022-11-20T06:00:38;-4.80;99.90
64226;DHT22;50545;56.064;26.178;2022-11-20T06:03:05;-4.70;99.90
64226;DHT22;50545;56.064;26.178;2022-11-20T06:05:33;-4.70;99.90
64226;DHT22;50545;56.064;26.178;2022-11-20T06:08:00;-4.70;99.90
64226;DHT22;50545;56.064;26.178;2022-11-20T06:10:28;-4.70;99.90
64226;DHT22;50545;56.064;26.178;2022-11-20T06:12:57;-4.70;99.90
64226;DHT22;50545;56.064;26.178;2022-11-20T06:15:25;-4.70;99.90
64226;DHT22;50545;56.064;26.178;2022-11-20T06:17:53;-4.70;99.90
64226;DHT22;50545;56.064;26.178;2022-11-20T06:20:23;-4.70;99.90
64226;DHT22;50545;56.064;26.178;2022-11-20T06:22:50;-4.70;99.90
64226;DHT22;50545;56.064;26.178;2022-11-20T06:25:17;-4.70;99.90
64226;DHT22;50545;56.064;26.178;2022-11-20T06:27:44;-4.70;99.90
64226;DHT22;50545;56.064;26.178;2022-11-20T06:30:12;-4.60;99.90
64226;DHT22;50545;56.064;26.178;2022-11-20T06:32:39;-4.70;99.90
64226;DHT22;50545;56.064;26.178;2022-11-20T06:35:06;-4.60;99.90
64226;DHT22;50545;56.064;26.178;2022-11-20T06:37:34;-4.60;99.90
64226;DHT22;50545;56.064;26.178;2022-11-20T06:40:01;-4.60;99.90
64226;DHT22;50545;56.064;26.178;2022-11-20T06:42:28;-4.50;99.90
64226;DHT22;50545;56.064;26.178;2022-11-20T06:44:55;-4.50;99.90
64226;DHT22;50545;56.064;26.178;2022-11-20T06:47:22;-4.50;99.90
64226;DHT22;50545;56.064;26.178;2022-11-20T06:49:50;-4.40;99.90
64226;DHT22;50545;56.064;26.178;2022-11-20T06:52:17;-4.40;99.90
64226;DHT22;50545;56.064;26.178;2022-11-20T06:54:44;-4.40;99.90
64226;DHT22;50545;56.064;26.178;2022-11-20T06:57:11;-4.50;99.90
64226;DHT22;50545;56.064;26.178;2022-11-20T06:59:38;-4.60;99.90
64226;DHT22;50545;56.064;26.178;2022-11-20T07:02:08;-4.70;99.90
64226;DHT22;50545;56.064;26.178;2022-11-20T07:04:37;-4.80;99.90
64226;DHT22;50545;56.064;26.178;2022-11-20T07:07:04;-4.90;99.90
64226;DHT22;50545;56.064;26.178;2022-11-20T07:09:33;-4.90;99.90
64226;DHT22;50545;56.064;26.178;2022-11-20T07:12:00;-5.00;99.90
64226;DHT22;50545;56.064;26.178;2022-11-20T07:14:28;-5.10;99.90
64226;DHT22;50545;56.064;26.178;2022-11-20T07:16:55;-5.10;99.90
64226;DHT22;50545;56.064;26.178;2022-11-20T07:19:22;-5.20;99.90
64226;DHT22;50545;56.064;26.178;2022-11-20T07:21:50;-5.20;99.90
64226;DHT22;50545;56.064;26.178;2022-11-20T07:24:17;-5.30;99.90
64226;DHT22;50545;56.064;26.178;2022-11-20T07:26:47;-5.30;99.90
64226;DHT22;50545;56.064;26.178;2022-11-20T07:29:16;-5.40;99.90
64226;DHT22;50545;56.064;26.178;2022-11-20T07:31:43;-5.40;99.90
64226;DHT22;50545;56.064;26.178;2022-11-20T07:34:10;-5.40;99.90
64226;DHT22;50545;56.064;26.178;2022-11-20T07:36:38;-5.40;99.90
64226;DHT22;50545;56.064;26.178;2022-11-20T07:39:06;-5.40;99.90
64226;DHT22;50545;56.064;26.178;2022-11-20T07:41:33;-5.40;99.90
64226;DHT22;50545;56.064;26.178;2022-11-20T07:44:00;-5.40;99.90
64226;DHT22;50545;56.064;26.178;2022-11-20T07:46:28;-5.40;99.90
64226;DHT22;50545;56.064;26.178;2022-11-20T07:48:55;-5.40;99.90
64226;DHT22;50545;56.064;26.178;2022-11-20T07:51:22;-5.40;99.90
64226;DHT22;50545;56.064;26.178;2022-11-20T07:53:52;-5.40;99.90
64226;DHT22;50545;56.064;26.178;2022-11-20T07:56:20;-5.40;99.90
64226;DHT22;50545;56.064;26.178;2022-11-20T07:58:47;-5.40;99.90
64226;DHT22;50545;56.064;26.178;2022-11-20T08:01:14;-5.40;99.90
64226;DHT22;50545;56.064;26.178;2022-11-20T08:03:41;-5.40;99.90
64226;DHT22;50545;56.064;26.178;2022-11-20T08:06:09;-5.40;99.90
64226;DHT22;50545;56.064;26.178;2022-11-20T08:08:36;-5.30;99.90
64226;DHT22;50545;56.064;26.178;2022-11-20T08:11:08;-5.30;99.90
64226;DHT22;50545;56.064;26.178;2022-11-20T08:13:54;-5.30;99.90
64226;DHT22;50545;56.064;26.178;2022-11-20T08:16:45;-5.30;99.90
64226;DHT22;50545;56.064;26.178;2022-11-20T08:19:13;-5.30;99.90
64226;DHT22;50545;56.064;26.178;2022-11-20T08:21:41;-5.30;99.90
64226;DHT22;50545;56.064;26.178;2022-11-20T08:24:09;-5.30;99.90
64226;DHT22;50545;56.064;26.178;2022-11-20T08:26:38;-5.30;99.90
64226;DHT22;50545;56.064;26.178;2022-11-20T08:29:05;-5.30;99.90
64226;DHT22;50545;56.064;26.178;2022-11-20T08:31:33;-5.20;99.90
64226;DHT22;50545;56.064;26.178;2022-11-20T08:34:00;-5.20;99.90
64226;DHT22;50545;56.064;26.178;2022-11-20T08:36:34;-5.20;99.90
64226;DHT22;50545;56.064;26.178;2022-11-20T08:39:02;-5.20;99.90
64226;DHT22;50545;56.064;26.178;2022-11-20T08:41:30;-5.20;99.90
64226;DHT22;50545;56.064;26.178;2022-11-20T08:44:00;-5.10;99.90
64226;DHT22;50545;56.064;26.178;2022-11-20T08:46:34;-5.20;99.90
64226;DHT22;50545;56.064;26.178;2022-11-20T08:49:04;-5.10;99.90
64226;DHT22;50545;56.064;26.178;2022-11-20T08:51:33;-5.10;99.90
64226;DHT22;50545;56.064;26.178;2022-11-20T08:54:00;-5.10;99.90
64226;DHT22;50545;56.064;26.178;2022-11-20T08:56:28;-5.00;99.90
64226;DHT22;50545;56.064;26.178;2022-11-20T08:58:55;-5.00;99.90
64226;DHT22;50545;56.064;26.178;2022-11-20T09:01:43;-5.00;99.90
64226;DHT22;50545;56.064;26.178;2022-11-20T09:04:10;-4.90;99.90
64226;DHT22;50545;56.064;26.178;2022-11-20T09:06:38;-4.90;99.90
64226;DHT22;50545;56.064;26.178;2022-11-20T09:09:05;-4.80;99.90
64226;DHT22;50545;56.064;26.178;2022-11-20T09:11:34;-4.90;99.90
64226;DHT22;50545;56.064;26.178;2022-11-20T09:14:02;-4.80;99.90
64226;DHT22;50545;56.064;26.178;2022-11-20T09:16:31;-4.70;99.90
64226;DHT22;50545;56.064;26.178;2022-11-20T09:18:58;-4.70;99.90
64226;DHT22;50545;56.064;26.178;2022-11-20T09:21:45;-4.70;99.90
64226;DHT22;50545;56.064;26.178;2022-11-20T09:24:12;-4.60;99.90
64226;DHT22;50545;56.064;26.178;2022-11-20T09:26:39;-4.60;99.90
64226;DHT22;50545;56.064;26.178;2022-11-20T09:29:07;-4.60;99.90
64226;DHT22;50545;56.064;26.178;2022-11-20T09:31:34;-4.60;99.90
64226;DHT22;50545;56.064;26.178;2022-11-20T09:34:02;-4.60;99.90
64226;DHT22;50545;56.064;26.178;2022-11-20T09:36:29;-4.50;99.90
64226;DHT22;50545;56.064;26.178;2022-11-20T09:38:57;-4.50;99.90
64226;DHT22;50545;56.064;26.178;2022-11-20T09:41:49;-4.50;99.90
64226;DHT22;50545;56.064;26.178;2022-11-20T09:44:24;-4.50;99.90
64226;DHT22;50545;56.064;26.178;2022-11-20T09:47:35;-4.50;99.90
64226;DHT22;50545;56.064;26.178;2022-11-20T09:55:32;-4.40;99.90
64226;DHT22;50545;56.064;26.178;2022-11-20T09:58:00;-4.40;99.90
64226;DHT22;50545;56.064;26.178;2022-11-20T10:00:29;-4.40;99.90
64226;DHT22;50545;56.064;26.178;2022-11-20T10:03:45;-4.50;99.90
64226;DHT22;50545;56.064;26.178;2022-11-20T10:06:13;-4.50;99.90
64226;DHT22;50545;56.064;26.178;2022-11-20T10:08:46;-4.50;99.90
64226;DHT22;50545;56.064;26.178;2022-11-20T10:25:37;-4.30;99.90
64226;DHT22;50545;56.064;26.178;2022-11-20T10:28:27;-4.20;99.90
64226;DHT22;50545;56.064;26.178;2022-11-20T10:31:07;-4.20;99.90
64226;DHT22;50545;56.064;26.178;2022-11-20T10:33:41;-4.10;99.90
64226;DHT22;50545;56.064;26.178;2022-11-20T10:36:34;-4.00;99.90
64226;DHT22;50545;56.064;26.178;2022-11-20T10:39:10;-3.90;99.90
64226;DHT22;50545;56.064;26.178;2022-11-20T10:41:41;-3.80;99.90
64226;DHT22;50545;56.064;26.178;2022-11-20T10:44:22;-3.60;99.90
64226;DHT22;50545;56.064;26.178;2022-11-20T10:47:17;-3.60;99.90
64226;DHT22;50545;56.064;26.178;2022-11-20T10:49:54;-3.40;99.90
64226;DHT22;50545;56.064;26.178;2022-11-20T10:56:29;-3.40;99.90
64226;DHT22;50545;56.064;26.178;2022-11-20T11:01:43;-3.40;98.70
64226;DHT22;50545;56.064;26.178;2022-11-20T11:07:17;-3.70;97.80
64226;DHT22;50545;56.064;26.178;2022-11-20T11:09:50;-3.80;97.60
64226;DHT22;50545;56.064;26.178;2022-11-20T11:12:18;-3.80;97.80
64226;DHT22;50545;56.064;26.178;2022-11-20T11:14:53;-3.80;98.20
64226;DHT22;50545;56.064;26.178;2022-11-20T11:25:35;-3.60;95.60
64226;DHT22;50545;56.064;26.178;2022-11-20T11:30:42;-3.60;96.10
64226;DHT22;50545;56.064;26.178;2022-11-20T11:33:18;-3.60;95.50
64226;DHT22;50545;56.064;26.178;2022-11-20T11:35:50;-3.70;95.30
64226;DHT22;50545;56.064;26.178;2022-11-20T11:38:38;-3.80;95.70
64226;DHT22;50545;56.064;26.178;2022-11-20T11:41:09;-3.90;95.60
64226;DHT22;50545;56.064;26.178;2022-11-20T11:43:37;-4.00;95.90
64226;DHT22;50545;56.064;26.178;2022-11-20T11:46:30;-4.10;96.20
64226;DHT22;50545;56.064;26.178;2022-11-20T11:49:00;-4.10;96.80
64226;DHT22;50545;56.064;26.178;2022-11-20T11:51:37;-4.20;97.10
64226;DHT22;50545;56.064;26.178;2022-11-20T11:54:24;-4.20;97.30
64226;DHT22;50545;56.064;26.178;2022-11-20T11:56:51;-4.30;98.20
64226;DHT22;50545;56.064;26.178;2022-11-20T11:59:33;-4.30;98.60
64226;DHT22;50545;56.064;26.178;2022-11-20T12:02:22;-4.30;99.10
64226;DHT22;50545;56.064;26.178;2022-11-20T12:04:58;-4.20;98.90
64226;DHT22;50545;56.064;26.178;2022-11-20T12:07:42;-4.20;98.60
64226;DHT22;50545;56.064;26.178;2022-11-20T12:10:24;-4.20;97.20
64226;DHT22;50545;56.064;26.178;2022-11-20T12:13:14;-4.30;97.00
64226;DHT22;50545;56.064;26.178;2022-11-20T12:15:45;-4.50;97.30
64226;DHT22;50545;56.064;26.178;2022-11-20T12:18:20;-4.70;98.40
64226;DHT22;50545;56.064;26.178;2022-11-20T12:24:18;-4.80;99.90
64226;DHT22;50545;56.064;26.178;2022-11-20T12:44:40;-4.90;99.90
64226;DHT22;50545;56.064;26.178;2022-11-20T12:56:26;-5.00;99.90
64226;DHT22;50545;56.064;26.178;2022-11-20T12:59:33;-5.00;99.90
64226;DHT22;50545;56.064;26.178;2022-11-20T13:07:46;-5.00;99.90
64226;DHT22;50545;56.064;26.178;2022-11-20T13:10:22;-5.00;99.90
64226;DHT22;50545;56.064;26.178;2022-11-20T13:12:58;-5.00;99.90
64226;DHT22;50545;56.064;26.178;2022-11-20T13:18:19;-5.00;99.90
64226;DHT22;50545;56.064;26.178;2022-11-20T13:20:47;-5.00;99.90
64226;DHT22;50545;56.064;26.178;2022-11-20T13:23:28;-4.90;99.90
64226;DHT22;50545;56.064;26.178;2022-11-20T13:26:19;-4.90;99.90
64226;DHT22;50545;56.064;26.178;2022-11-20T13:31:35;-4.90;99.90
64226;DHT22;50545;56.064;26.178;2022-11-20T13:34:05;-4.90;99.90
64226;DHT22;50545;56.064;26.178;2022-11-20T13:36:33;-4.90;99.90
64226;DHT22;50545;56.064;26.178;2022-11-20T13:39:02;-4.80;99.90
64226;DHT22;50545;56.064;26.178;2022-11-20T13:41:37;-4.80;99.90
64226;DHT22;50545;56.064;26.178;2022-11-20T13:46:45;-4.80;99.90
64226;DHT22;50545;56.064;26.178;2022-11-20T13:49:37;-4.80;99.90
64226;DHT22;50545;56.064;26.178;2022-11-20T14:01:29;-4.80;99.90
64226;DHT22;50545;56.064;26.178;2022-11-20T14:03:58;-4.80;99.90
64226;DHT22;50545;56.064;26.178;2022-11-20T14:06:40;-4.80;99.90
64226;DHT22;50545;56.064;26.178;2022-11-20T14:09:13;-4.80;99.90
64226;DHT22;50545;56.064;26.178;2022-11-20T14:11:51;-4.80;99.90
64226;DHT22;50545;56.064;26.178;2022-11-20T14:14:24;-4.80;99.90
64226;DHT22;50545;56.064;26.178;2022-11-20T14:16:53;-4.80;99.90
64226;DHT22;50545;56.064;26.178;2022-11-20T14:19:32;-4.90;99.90
64226;DHT22;50545;56.064;26.178;2022-11-20T14:22:21;-4.90;99.90
64226;DHT22;50545;56.064;26.178;2022-11-20T14:27:37;-4.90;99.90
64226;DHT22;50545;56.064;26.178;2022-11-20T14:33:02;-4.90;99.90
64226;DHT22;50545;56.064;26.178;2022-11-20T14:35:36;-4.90;99.90
64226;DHT22;50545;56.064;26.178;2022-11-20T14:38:04;-4.90;99.90
64226;DHT22;50545;56.064;26.178;2022-11-20T14:40:38;-4.90;99.90
64226;DHT22;50545;56.064;26.178;2022-11-20T14:43:27;-4.90;99.90
64226;DHT22;50545;56.064;26.178;2022-11-20T14:46:07;-5.00;99.90
64226;DHT22;50545;56.064;26.178;2022-11-20T14:48:39;-4.90;99.90
64226;DHT22;50545;56.064;26.178;2022-11-20T14:51:10;-5.00;99.90
64226;DHT22;50545;56.064;26.178;2022-11-20T14:53:37;-5.00;99.90
64226;DHT22;50545;56.064;26.178;2022-11-20T14:56:05;-5.00;99.90
64226;DHT22;50545;56.064;26.178;2022-11-20T14:58:33;-5.00;99.90
64226;DHT22;50545;56.064;26.178;2022-11-20T15:01:04;-5.00;99.90
64226;DHT22;50545;56.064;26.178;2022-11-20T15:03:39;-5.00;99.90
64226;DHT22;50545;56.064;26.178;2022-11-20T15:06:10;-5.00;99.90
64226;DHT22;50545;56.064;26.178;2022-11-20T15:08:38;-5.00;99.90
64226;DHT22;50545;56.064;26.178;2022-11-20T15:11:17;-5.00;99.90
64226;DHT22;50545;56.064;26.178;2022-11-20T15:13:45;-5.00;99.90
64226;DHT22;50545;56.064;26.178;2022-11-20T15:16:19;-5.00;99.90
64226;DHT22;50545;56.064;26.178;2022-11-20T15:18:47;-5.00;99.90
64226;DHT22;50545;56.064;26.178;2022-11-20T15:21:16;-5.00;99.90
64226;DHT22;50545;56.064;26.178;2022-11-20T15:23:45;-5.00;99.90
64226;DHT22;50545;56.064;26.178;2022-11-20T15:26:14;-5.00;99.90
64226;DHT22;50545;56.064;26.178;2022-11-20T15:28:47;-4.90;99.90
64226;DHT22;50545;56.064;26.178;2022-11-20T15:31:19;-5.00;99.90
64226;DHT22;50545;56.064;26.178;2022-11-20T15:33:47;-4.90;99.90
64226;DHT22;50545;56.064;26.178;2022-11-20T15:36:15;-4.90;99.90
64226;DHT22;50545;56.064;26.178;2022-11-20T15:38:42;-4.90;99.90
64226;DHT22;50545;56.064;26.178;2022-11-20T15:41:09;-4.90;99.90
64226;DHT22;50545;56.064;26.178;2022-11-20T15:43:37;-4.90;99.90
64226;DHT22;50545;56.064;26.178;2022-11-20T15:46:11;-4.90;99.90
64226;DHT22;50545;56.064;26.178;2022-11-20T15:48:42;-4.90;99.90
64226;DHT22;50545;56.064;26.178;2022-11-20T15:51:26;-4.90;99.90
64226;DHT22;50545;56.064;26.178;2022-11-20T15:53:55;-4.90;99.90
64226;DHT22;50545;56.064;26.178;2022-11-20T15:56:23;-4.90;99.90
64226;DHT22;50545;56.064;26.178;2022-11-20T15:58:50;-4.90;99.90
64226;DHT22;50545;56.064;26.178;2022-11-20T16:01:20;-4.80;99.90
64226;DHT22;50545;56.064;26.178;2022-11-20T16:03:48;-4.80;99.90
64226;DHT22;50545;56.064;26.178;2022-11-20T16:06:15;-4.80;99.90
64226;DHT22;50545;56.064;26.178;2022-11-20T16:08:45;-4.80;99.90
64226;DHT22;50545;56.064;26.178;2022-11-20T16:11:14;-4.80;99.90
64226;DHT22;50545;56.064;26.178;2022-11-20T16:13:41;-4.80;99.90
64226;DHT22;50545;56.064;26.178;2022-11-20T16:16:34;-4.80;99.90
64226;DHT22;50545;56.064;26.178;2022-11-20T16:19:01;-4.80;99.90
64226;DHT22;50545;56.064;26.178;2022-11-20T16:21:29;-4.80;99.90
64226;DHT22;50545;56.064;26.178;2022-11-20T16:24:04;-4.80;99.90
64226;DHT22;50545;56.064;26.178;2022-11-20T16:26:32;-4.80;99.90
64226;DHT22;50545;56.064;26.178;2022-11-20T16:29:01;-4.80;99.90
64226;DHT22;50545;56.064;26.178;2022-11-20T16:31:29;-4.80;99.90
64226;DHT22;50545;56.064;26.178;2022-11-20T16:33:58;-4.80;99.90
64226;DHT22;50545;56.064;26.178;2022-11-20T16:36:27;-4.80;99.90
64226;DHT22;50545;56.064;26.178;2022-11-20T16:38:56;-4.70;99.90
64226;DHT22;50545;56.064;26.178;2022-11-20T16:41:26;-4.80;99.90
64226;DHT22;50545;56.064;26.178;2022-11-20T16:43:55;-4.80;99.90
64226;DHT22;50545;56.064;26.178;2022-11-20T16:46:29;-4.70;99.90
64226;DHT22;50545;56.064;26.178;2022-11-20T16:48:59;-4.80;99.90
64226;DHT22;50545;56.064;26.178;2022-11-20T16:51:28;-4.80;99.90
64226;DHT22;50545;56.064;26.178;2022-11-20T16:53:56;-4.80;99.90
64226;DHT22;50545;56.064;26.178;2022-11-20T16:56:25;-4.80;99.90
64226;DHT22;50545;56.064;26.178;2022-11-20T16:58:55;-4.80;99.90
64226;DHT22;50545;56.064;26.178;2022-11-20T17:01:25;-4.80;99.90
64226;DHT22;50545;56.064;26.178;2022-11-20T17:03:56;-4.80;99.90
64226;DHT22;50545;56.064;26.178;2022-11-20T17:06:27;-4.80;99.90
64226;DHT22;50545;56.064;26.178;2022-11-20T17:08:59;-4.80;99.90
64226;DHT22;50545;56.064;26.178;2022-11-20T17:11:27;-4.80;99.90
64226;DHT22;50545;56.064;26.178;2022-11-20T17:13:55;-4.80;99.90
64226;DHT22;50545;56.064;26.178;2022-11-20T17:16:24;-4.80;99.90
64226;DHT22;50545;56.064;26.178;2022-11-20T17:18:54;-4.80;99.90
64226;DHT22;50545;56.064;26.178;2022-11-20T17:21:28;-4.80;99.90